Time,TemperatureF,DewpointF,PressureIn,WindDirection,WindDirectionDegrees,WindSpeedMPH,WindSpeedGustMPH,Humidity,HourlyPrecipIn,Conditions,Clouds,dailyrainin,SolarRadiationWatts/m^2,SoftwareType,DateUTC
2013-05-06 00:00:00,54.0,26.0,-100.00,SSE,162,5.0,-999.0,34,-99.99,,,-99.99,0.000000,,2013-05-06 06:00:00,
2013-05-06 00:52:00,54.0,26.0,-100.00,SSE,162,5.0,-999.0,34,-99.99,,,-99.99,0.000000,,2013-05-06 06:52:00,
2013-05-06 02:00:00,55.0,28.0,-100.00,SSE,167,5.0,10.0,35,-99.99,,,-99.99,0.000000,,2013-05-06 08:00:00,
2013-05-06 03:00:00,50.0,30.0,-100.00,SE,138,3.0,-999.0,47,-99.99,,,-99.99,0.000000,,2013-05-06 09:00:00,
2013-05-06 03:53:00,50.0,30.0,-100.00,SE,138,3.0,-999.0,47,-99.99,,,-99.99,0.000000,,2013-05-06 09:53:00,
2013-05-06 04:00:00,53.0,29.0,-100.00,SSE,158,4.0,-999.0,39,-99.99,,,-99.99,0.000000,,2013-05-06 10:00:00,
2013-05-06 04:52:00,53.0,29.0,-100.00,SSE,158,4.0,-999.0,39,-99.99,,,-99.99,0.000000,,2013-05-06 10:52:00,
2013-05-06 05:00:00,49.0,30.0,-100.00,SSE,149,3.0,-999.0,49,-99.99,,,-99.99,0.000000,,2013-05-06 11:00:00,
2013-05-06 05:52:00,49.0,30.0,-100.00,SSE,149,3.0,-999.0,49,-99.99,,,-99.99,0.000000,,2013-05-06 11:52:00,
2013-05-06 06:00:00,47.0,31.0,-100.00,ESE,123,4.0,-999.0,53,-99.99,,,-99.99,0.000000,,2013-05-06 12:00:00,
2013-05-06 06:52:00,47.0,31.0,-100.00,ESE,123,4.0,-999.0,53,-99.99,,,-99.99,0.000000,,2013-05-06 12:52:00,
2013-05-06 07:00:00,46.0,31.0,-100.00,East,97,4.0,-999.0,55,-99.99,,,-99.99,8.910000,,2013-05-06 13:00:00,
2013-05-06 07:52:00,46.0,31.0,-100.00,East,97,4.0,-999.0,55,-99.99,,,-99.99,8.910000,,2013-05-06 13:52:00,
2013-05-06 08:00:00,54.0,32.0,-100.00,ESE,118,2.0,-999.0,43,-99.99,,,-99.99,133.399994,,2013-05-06 14:00:00,
2013-05-06 08:52:00,54.0,32.0,-100.00,ESE,118,2.0,-999.0,43,-99.99,,,-99.99,133.399994,,2013-05-06 14:52:00,
2013-05-06 09:00:00,58.0,32.0,-100.00,NW,322,3.0,-999.0,38,-99.99,,,-99.99,324.899994,,2013-05-06 15:00:00,
2013-05-06 09:53:00,58.0,32.0,-100.00,NW,322,3.0,-999.0,38,-99.99,,,-99.99,324.899994,,2013-05-06 15:53:00,
2013-05-06 10:00:00,58.0,32.0,-100.00,NW,322,3.0,5.0,38,-99.99,,,-99.99,324.899994,,2013-05-06 16:00:00,
2013-05-06 11:00:00,61.0,31.0,-100.00,NNE,15,3.0,-999.0,31,-99.99,,,-99.99,538.099976,,2013-05-06 17:00:00,
2013-05-06 11:52:00,61.0,31.0,-100.00,NNE,15,3.0,-999.0,31,-99.99,,,-99.99,538.099976,,2013-05-06 17:52:00,
2013-05-06 12:00:00,62.0,27.0,-100.00,South,181,11.0,-999.0,26,-99.99,,,-99.99,280.100006,,2013-05-06 18:00:00,
2013-05-06 12:52:00,62.0,27.0,-100.00,South,181,11.0,-999.0,26,-99.99,,,-99.99,280.100006,,2013-05-06 18:52:00,
2013-05-06 13:00:00,63.0,27.0,-100.00,South,183,10.0,-999.0,26,-99.99,,,-99.99,550.099976,,2013-05-06 19:00:00,
2013-05-06 13:52:00,63.0,27.0,-100.00,South,183,10.0,-999.0,26,-99.99,,,-99.99,550.099976,,2013-05-06 19:52:00,
2013-05-06 14:00:00,61.0,30.0,-100.00,SSW,205,12.0,-999.0,30,-99.99,,,-99.99,500.799988,,2013-05-06 20:00:00,
2013-05-06 14:52:00,61.0,30.0,-100.00,SSW,205,12.0,-999.0,30,-99.99,,,-99.99,500.799988,,2013-05-06 20:52:00,
2013-05-06 15:00:00,56.0,38.0,-100.00,SE,144,12.0,-999.0,51,-99.99,,,-99.99,298.399994,,2013-05-06 21:00:00,
2013-05-06 15:53:00,56.0,38.0,-100.00,SE,144,12.0,-999.0,51,-99.99,,,-99.99,298.399994,,2013-05-06 21:53:00,
2013-05-06 16:00:00,58.0,36.0,-100.00,ENE,75,8.0,-999.0,43,-99.99,,,-99.99,336.899994,,2013-05-06 22:00:00,
2013-05-06 16:52:00,58.0,36.0,-100.00,ENE,75,8.0,-999.0,43,-99.99,,,-99.99,336.899994,,2013-05-06 22:52:00,
2013-05-06 17:00:00,58.0,37.0,-100.00,North,4,5.0,-999.0,46,-99.99,,,-99.99,255.800003,,2013-05-06 23:00:00,
2013-05-06 17:52:00,58.0,37.0,-100.00,North,4,5.0,-999.0,46,-99.99,,,-99.99,255.800003,,2013-05-06 23:52:00,
2013-05-06 18:00:00,55.0,40.0,-100.00,South,173,5.0,-999.0,56,-99.99,,,-99.99,97.300003,,2013-05-07 00:00:00,
2013-05-06 18:52:00,55.0,40.0,-100.00,South,173,5.0,-999.0,56,-99.99,,,-99.99,97.300003,,2013-05-07 00:52:00,
2013-05-06 19:00:00,50.0,45.0,-100.00,South,173,10.0,-999.0,81,-99.99,,,-99.99,84.800003,,2013-05-07 01:00:00,
2013-05-06 19:53:00,50.0,45.0,-100.00,South,173,10.0,-999.0,81,-99.99,,,-99.99,84.800003,,2013-05-07 01:53:00,
2013-05-06 20:00:00,50.0,44.0,-100.00,ESE,103,3.0,-999.0,78,-99.99,,,-99.99,32.430000,,2013-05-07 02:00:00,
2013-05-06 20:52:00,50.0,44.0,-100.00,ESE,103,3.0,-999.0,78,-99.99,,,-99.99,32.430000,,2013-05-07 02:52:00,
2013-05-06 21:00:00,48.0,40.0,-100.00,SW,230,8.0,-999.0,75,-99.99,,,-99.99,5.010000,,2013-05-07 03:00:00,
2013-05-06 21:53:00,48.0,40.0,-100.00,SW,230,8.0,-999.0,75,-99.99,,,-99.99,5.010000,,2013-05-07 03:53:00,
2013-05-06 23:00:00,47.0,41.0,-100.00,SSE,166,7.0,15.0,81,-99.99,,,-99.99,0.000000,,2013-05-07 05:00:00,